Duluth, Minnesota
Current Conditions -  °F | °C
As of 9:55 AM on Saturday 20 Dec 2014 (Local Time) from KDLH Reporting Station
Light Snow Light Snow  
Wind Chill: -7°   Ceiling: 600
Heat Index: -3°   Visibility: 3mi
Dew Point: -4°   Wind: 8mph
Humidity: 89%   Direction: 170°S
Pressure: 30.1"   Gusts: NA
Location:  46.79°N, 92.09°W
Report Text: KDLH 201555Z 17007KT 3SM -SN BR OVC006 M03/M04 A3010 RMK AO2 SLP218 FLURRIES P0000 T10281044
Loading
Personal Weather Stations






























Interactive Weather Map New forecast layout! Learn more

10-Day Weather Forecast

Advertisements
Track Severe Weather on mobile